sensor_id;sensor_type;location;lat;lon;timestamp;P1;durP1;ratioP1;P2;durP2;ratioP2
58017;SDS011;43810;50.860;19.226;2023-05-07T00:00:11;3.80;;;2.63;;
58017;SDS011;43810;50.860;19.226;2023-05-07T00:03:00;3.75;;;2.47;;
58017;SDS011;43810;50.860;19.226;2023-05-07T00:05:26;4.03;;;2.53;;
58017;SDS011;43810;50.860;19.226;2023-05-07T00:07:52;4.10;;;2.95;;
58017;SDS011;43810;50.860;19.226;2023-05-07T00:10:18;4.43;;;3.00;;
58017;SDS011;43810;50.860;19.226;2023-05-07T00:12:44;4.35;;;2.70;;
58017;SDS011;43810;50.860;19.226;2023-05-07T00:15:10;4.20;;;2.88;;
58017;SDS011;43810;50.860;19.226;2023-05-07T00:17:36;3.83;;;3.08;;
58017;SDS011;43810;50.860;19.226;2023-05-07T00:20:03;4.20;;;3.03;;
58017;SDS011;43810;50.860;19.226;2023-05-07T00:22:30;4.50;;;3.10;;
58017;SDS011;43810;50.860;19.226;2023-05-07T00:24:56;4.28;;;2.88;;
58017;SDS011;43810;50.860;19.226;2023-05-07T00:27:22;3.20;;;2.90;;
58017;SDS011;43810;50.860;19.226;2023-05-07T00:29:48;6.70;;;2.50;;
58017;SDS011;43810;50.860;19.226;2023-05-07T00:32:14;3.90;;;3.20;;
58017;SDS011;43810;50.860;19.226;2023-05-07T00:34:40;5.53;;;3.20;;
58017;SDS011;43810;50.860;19.226;2023-05-07T00:37:05;8.98;;;4.20;;
58017;SDS011;43810;50.860;19.226;2023-05-07T00:39:33;9.52;;;3.53;;
58017;SDS011;43810;50.860;19.226;2023-05-07T00:41:59;4.18;;;2.97;;
58017;SDS011;43810;50.860;19.226;2023-05-07T00:44:26;3.38;;;2.80;;
58017;SDS011;43810;50.860;19.226;2023-05-07T00:46:52;6.38;;;3.33;;
58017;SDS011;43810;50.860;19.226;2023-05-07T00:49:19;5.15;;;3.45;;
58017;SDS011;43810;50.860;19.226;2023-05-07T00:51:45;3.45;;;2.70;;
58017;SDS011;43810;50.860;19.226;2023-05-07T00:54:12;3.83;;;2.85;;
58017;SDS011;43810;50.860;19.226;2023-05-07T00:56:38;5.95;;;3.22;;
58017;SDS011;43810;50.860;19.226;2023-05-07T00:59:05;3.75;;;2.88;;
58017;SDS011;43810;50.860;19.226;2023-05-07T01:01:31;3.72;;;2.88;;
58017;SDS011;43810;50.860;19.226;2023-05-07T01:03:58;3.05;;;2.58;;
58017;SDS011;43810;50.860;19.226;2023-05-07T01:06:23;3.60;;;2.88;;
58017;SDS011;43810;50.860;19.226;2023-05-07T01:08:53;3.80;;;3.00;;
58017;SDS011;43810;50.860;19.226;2023-05-07T01:11:21;5.80;;;4.47;;
58017;SDS011;43810;50.860;19.226;2023-05-07T01:13:48;4.85;;;3.72;;
58017;SDS011;43810;50.860;19.226;2023-05-07T01:16:15;4.63;;;3.30;;
58017;SDS011;43810;50.860;19.226;2023-05-07T01:18:42;5.53;;;3.25;;
58017;SDS011;43810;50.860;19.226;2023-05-07T01:21:07;4.97;;;4.20;;
58017;SDS011;43810;50.860;19.226;2023-05-07T01:23:36;8.27;;;3.35;;
58017;SDS011;43810;50.860;19.226;2023-05-07T01:26:03;9.43;;;4.53;;
58017;SDS011;43810;50.860;19.226;2023-05-07T01:28:29;4.93;;;3.92;;
58017;SDS011;43810;50.860;19.226;2023-05-07T01:30:56;4.53;;;2.72;;
58017;SDS011;43810;50.860;19.226;2023-05-07T01:33:27;5.43;;;2.80;;
58017;SDS011;43810;50.860;19.226;2023-05-07T01:35:56;4.70;;;3.63;;
58017;SDS011;43810;50.860;19.226;2023-05-07T01:38:25;11.63;;;3.08;;
58017;SDS011;43810;50.860;19.226;2023-05-07T01:40:52;4.28;;;3.10;;
58017;SDS011;43810;50.860;19.226;2023-05-07T01:43:18;4.63;;;2.85;;
58017;SDS011;43810;50.860;19.226;2023-05-07T01:45:44;6.53;;;3.58;;
58017;SDS011;43810;50.860;19.226;2023-05-07T01:48:11;8.40;;;4.53;;
58017;SDS011;43810;50.860;19.226;2023-05-07T01:50:39;6.63;;;3.25;;
58017;SDS011;43810;50.860;19.226;2023-05-07T01:53:05;5.80;;;3.20;;
58017;SDS011;43810;50.860;19.226;2023-05-07T01:55:31;2.85;;;2.50;;
58017;SDS011;43810;50.860;19.226;2023-05-07T01:57:57;2.95;;;2.35;;
58017;SDS011;43810;50.860;19.226;2023-05-07T02:00:23;4.70;;;3.05;;
58017;SDS011;43810;50.860;19.226;2023-05-07T02:02:49;3.83;;;2.78;;
58017;SDS011;43810;50.860;19.226;2023-05-07T02:05:15;5.28;;;2.78;;
58017;SDS011;43810;50.860;19.226;2023-05-07T02:07:41;5.18;;;2.60;;
58017;SDS011;43810;50.860;19.226;2023-05-07T02:10:06;3.97;;;3.17;;
58017;SDS011;43810;50.860;19.226;2023-05-07T02:12:32;3.83;;;2.95;;
58017;SDS011;43810;50.860;19.226;2023-05-07T02:14:58;6.13;;;3.05;;
58017;SDS011;43810;50.860;19.226;2023-05-07T02:17:24;4.40;;;3.50;;
58017;SDS011;43810;50.860;19.226;2023-05-07T02:19:51;3.78;;;3.38;;
58017;SDS011;43810;50.860;19.226;2023-05-07T02:22:17;3.45;;;2.50;;
58017;SDS011;43810;50.860;19.226;2023-05-07T02:24:43;2.70;;;2.40;;
58017;SDS011;43810;50.860;19.226;2023-05-07T02:27:08;4.40;;;3.08;;
58017;SDS011;43810;50.860;19.226;2023-05-07T02:29:34;4.53;;;3.42;;
58017;SDS011;43810;50.860;19.226;2023-05-07T02:32:00;4.70;;;2.85;;
58017;SDS011;43810;50.860;19.226;2023-05-07T02:34:26;5.13;;;2.88;;
58017;SDS011;43810;50.860;19.226;2023-05-07T02:36:52;3.47;;;2.83;;
58017;SDS011;43810;50.860;19.226;2023-05-07T02:39:17;4.93;;;3.25;;
58017;SDS011;43810;50.860;19.226;2023-05-07T02:41:44;3.72;;;2.88;;
58017;SDS011;43810;50.860;19.226;2023-05-07T02:44:09;6.63;;;2.88;;
58017;SDS011;43810;50.860;19.226;2023-05-07T02:46:35;3.22;;;2.47;;
58017;SDS011;43810;50.860;19.226;2023-05-07T02:49:01;8.30;;;2.80;;
58017;SDS011;43810;50.860;19.226;2023-05-07T02:51:27;6.00;;;2.90;;
58017;SDS011;43810;50.860;19.226;2023-05-07T02:53:52;4.32;;;2.60;;
58017;SDS011;43810;50.860;19.226;2023-05-07T02:56:18;4.40;;;2.85;;
58017;SDS011;43810;50.860;19.226;2023-05-07T02:58:44;4.70;;;2.70;;
58017;SDS011;43810;50.860;19.226;2023-05-07T03:01:10;3.78;;;2.78;;
58017;SDS011;43810;50.860;19.226;2023-05-07T03:03:35;4.32;;;2.60;;
58017;SDS011;43810;50.860;19.226;2023-05-07T03:06:01;3.00;;;2.58;;
58017;SDS011;43810;50.860;19.226;2023-05-07T03:08:27;2.33;;;2.13;;
58017;SDS011;43810;50.860;19.226;2023-05-07T03:10:53;4.00;;;2.35;;
58017;SDS011;43810;50.860;19.226;2023-05-07T03:13:19;5.32;;;2.17;;
58017;SDS011;43810;50.860;19.226;2023-05-07T03:15:45;3.35;;;2.10;;
58017;SDS011;43810;50.860;19.226;2023-05-07T03:18:10;3.53;;;2.28;;
58017;SDS011;43810;50.860;19.226;2023-05-07T03:20:37;4.35;;;2.60;;
58017;SDS011;43810;50.860;19.226;2023-05-07T03:23:02;2.92;;;2.33;;
58017;SDS011;43810;50.860;19.226;2023-05-07T03:25:29;2.78;;;2.35;;
58017;SDS011;43810;50.860;19.226;2023-05-07T03:27:57;4.38;;;2.08;;
58017;SDS011;43810;50.860;19.226;2023-05-07T03:30:23;3.15;;;2.20;;
58017;SDS011;43810;50.860;19.226;2023-05-07T03:32:49;4.40;;;2.10;;
58017;SDS011;43810;50.860;19.226;2023-05-07T03:35:16;4.25;;;2.28;;
58017;SDS011;43810;50.860;19.226;2023-05-07T03:37:41;5.72;;;1.92;;
58017;SDS011;43810;50.860;19.226;2023-05-07T03:40:07;2.40;;;1.80;;
58017;SDS011;43810;50.860;19.226;2023-05-07T03:42:35;3.30;;;1.73;;
58017;SDS011;43810;50.860;19.226;2023-05-07T03:45:01;5.13;;;2.13;;
58017;SDS011;43810;50.860;19.226;2023-05-07T03:47:27;3.03;;;1.73;;
58017;SDS011;43810;50.860;19.226;2023-05-07T03:49:53;3.92;;;2.25;;
58017;SDS011;43810;50.860;19.226;2023-05-07T03:52:20;2.30;;;1.98;;
58017;SDS011;43810;50.860;19.226;2023-05-07T03:54:49;4.85;;;2.30;;
58017;SDS011;43810;50.860;19.226;2023-05-07T03:57:15;2.97;;;2.25;;
58017;SDS011;43810;50.860;19.226;2023-05-07T03:59:41;2.28;;;1.83;;
58017;SDS011;43810;50.860;19.226;2023-05-07T04:02:06;5.72;;;2.30;;
58017;SDS011;43810;50.860;19.226;2023-05-07T04:04:33;4.38;;;2.65;;
58017;SDS011;43810;50.860;19.226;2023-05-07T04:06:58;2.88;;;2.42;;
58017;SDS011;43810;50.860;19.226;2023-05-07T04:09:27;2.72;;;2.25;;
58017;SDS011;43810;50.860;19.226;2023-05-07T04:11:53;4.45;;;2.25;;
58017;SDS011;43810;50.860;19.226;2023-05-07T04:14:19;2.97;;;2.20;;
58017;SDS011;43810;50.860;19.226;2023-05-07T04:16:44;3.25;;;2.17;;
58017;SDS011;43810;50.860;19.226;2023-05-07T04:19:10;5.60;;;1.80;;
58017;SDS011;43810;50.860;19.226;2023-05-07T04:21:36;3.80;;;2.30;;
58017;SDS011;43810;50.860;19.226;2023-05-07T04:24:05;3.45;;;2.25;;
58017;SDS011;43810;50.860;19.226;2023-05-07T04:26:30;4.38;;;2.10;;
58017;SDS011;43810;50.860;19.226;2023-05-07T04:28:57;4.03;;;1.98;;
58017;SDS011;43810;50.860;19.226;2023-05-07T04:31:24;3.38;;;1.80;;
58017;SDS011;43810;50.860;19.226;2023-05-07T04:33:50;2.80;;;1.83;;
58017;SDS011;43810;50.860;19.226;2023-05-07T04:36:16;4.10;;;2.05;;
58017;SDS011;43810;50.860;19.226;2023-05-07T04:38:42;4.03;;;1.98;;
58017;SDS011;43810;50.860;19.226;2023-05-07T04:41:08;6.25;;;2.28;;
58017;SDS011;43810;50.860;19.226;2023-05-07T04:43:34;2.85;;;2.35;;
58017;SDS011;43810;50.860;19.226;2023-05-07T04:46:00;3.30;;;2.40;;
58017;SDS011;43810;50.860;19.226;2023-05-07T04:48:26;4.10;;;2.10;;
58017;SDS011;43810;50.860;19.226;2023-05-07T04:50:52;4.65;;;2.00;;
58017;SDS011;43810;50.860;19.226;2023-05-07T04:53:18;3.80;;;2.10;;
58017;SDS011;43810;50.860;19.226;2023-05-07T04:55:44;2.55;;;2.03;;
58017;SDS011;43810;50.860;19.226;2023-05-07T04:58:11;2.92;;;1.85;;
58017;SDS011;43810;50.860;19.226;2023-05-07T05:00:37;3.13;;;1.88;;
58017;SDS011;43810;50.860;19.226;2023-05-07T05:03:06;2.65;;;1.77;;
58017;SDS011;43810;50.860;19.226;2023-05-07T05:05:32;2.63;;;1.98;;
58017;SDS011;43810;50.860;19.226;2023-05-07T05:07:58;1.48;;;1.27;;
58017;SDS011;43810;50.860;19.226;2023-05-07T05:10:24;4.53;;;1.70;;
58017;SDS011;43810;50.860;19.226;2023-05-07T05:12:51;3.17;;;1.42;;
58017;SDS011;43810;50.860;19.226;2023-05-07T05:15:16;4.15;;;1.50;;
58017;SDS011;43810;50.860;19.226;2023-05-07T05:17:42;2.65;;;1.67;;
58017;SDS011;43810;50.860;19.226;2023-05-07T05:20:08;4.82;;;1.90;;
58017;SDS011;43810;50.860;19.226;2023-05-07T05:22:36;1.83;;;1.70;;
58017;SDS011;43810;50.860;19.226;2023-05-07T05:25:02;4.70;;;1.90;;
58017;SDS011;43810;50.860;19.226;2023-05-07T05:27:28;3.85;;;1.70;;
58017;SDS011;43810;50.860;19.226;2023-05-07T05:29:54;3.22;;;2.08;;
58017;SDS011;43810;50.860;19.226;2023-05-07T05:32:20;4.47;;;1.98;;
58017;SDS011;43810;50.860;19.226;2023-05-07T05:34:45;5.07;;;2.22;;
58017;SDS011;43810;50.860;19.226;2023-05-07T05:37:12;6.00;;;2.17;;
58017;SDS011;43810;50.860;19.226;2023-05-07T05:39:37;3.22;;;2.30;;
58017;SDS011;43810;50.860;19.226;2023-05-07T05:42:03;3.00;;;2.10;;
58017;SDS011;43810;50.860;19.226;2023-05-07T05:44:29;3.67;;;1.80;;
58017;SDS011;43810;50.860;19.226;2023-05-07T05:46:55;4.95;;;2.10;;
58017;SDS011;43810;50.860;19.226;2023-05-07T05:49:22;6.50;;;1.70;;
58017;SDS011;43810;50.860;19.226;2023-05-07T05:51:48;1.73;;;1.60;;
58017;SDS011;43810;50.860;19.226;2023-05-07T05:54:14;6.00;;;2.13;;
58017;SDS011;43810;50.860;19.226;2023-05-07T05:56:41;3.15;;;1.85;;
58017;SDS011;43810;50.860;19.226;2023-05-07T05:59:07;2.33;;;1.75;;
58017;SDS011;43810;50.860;19.226;2023-05-07T06:01:33;2.67;;;2.00;;
58017;SDS011;43810;50.860;19.226;2023-05-07T06:03:59;2.42;;;1.85;;
58017;SDS011;43810;50.860;19.226;2023-05-07T06:06:25;2.17;;;1.80;;
58017;SDS011;43810;50.860;19.226;2023-05-07T06:08:51;3.55;;;1.77;;
58017;SDS011;43810;50.860;19.226;2023-05-07T06:11:17;5.05;;;2.10;;
58017;SDS011;43810;50.860;19.226;2023-05-07T06:13:42;2.08;;;1.60;;
58017;SDS011;43810;50.860;19.226;2023-05-07T06:16:08;2.42;;;1.70;;
58017;SDS011;43810;50.860;19.226;2023-05-07T06:18:34;4.28;;;2.15;;
58017;SDS011;43810;50.860;19.226;2023-05-07T06:21:02;3.85;;;1.90;;
58017;SDS011;43810;50.860;19.226;2023-05-07T06:23:27;6.20;;;1.90;;
58017;SDS011;43810;50.860;19.226;2023-05-07T06:25:53;2.38;;;1.60;;
58017;SDS011;43810;50.860;19.226;2023-05-07T06:28:19;2.72;;;1.60;;
58017;SDS011;43810;50.860;19.226;2023-05-07T06:30:45;3.03;;;1.30;;
58017;SDS011;43810;50.860;19.226;2023-05-07T06:33:11;5.80;;;2.80;;
58017;SDS011;43810;50.860;19.226;2023-05-07T06:35:37;3.97;;;1.20;;
58017;SDS011;43810;50.860;19.226;2023-05-07T06:38:02;2.35;;;2.10;;
58017;SDS011;43810;50.860;19.226;2023-05-07T06:40:28;2.45;;;1.50;;
58017;SDS011;43810;50.860;19.226;2023-05-07T06:42:54;2.28;;;1.50;;
58017;SDS011;43810;50.860;19.226;2023-05-07T06:45:20;2.38;;;1.38;;
58017;SDS011;43810;50.860;19.226;2023-05-07T06:47:46;2.88;;;1.60;;
58017;SDS011;43810;50.860;19.226;2023-05-07T06:50:12;2.08;;;1.55;;
58017;SDS011;43810;50.860;19.226;2023-05-07T06:52:38;3.03;;;1.88;;
58017;SDS011;43810;50.860;19.226;2023-05-07T06:55:04;4.10;;;1.58;;
58017;SDS011;43810;50.860;19.226;2023-05-07T06:57:30;3.88;;;1.50;;
58017;SDS011;43810;50.860;19.226;2023-05-07T06:59:56;1.83;;;1.65;;
58017;SDS011;43810;50.860;19.226;2023-05-07T07:02:21;1.90;;;1.50;;
58017;SDS011;43810;50.860;19.226;2023-05-07T07:04:47;1.30;;;1.20;;
58017;SDS011;43810;50.860;19.226;2023-05-07T07:07:13;2.13;;;1.70;;
58017;SDS011;43810;50.860;19.226;2023-05-07T07:09:39;2.13;;;1.60;;
58017;SDS011;43810;50.860;19.226;2023-05-07T07:12:05;2.88;;;1.83;;
58017;SDS011;43810;50.860;19.226;2023-05-07T07:14:31;4.70;;;1.80;;
58017;SDS011;43810;50.860;19.226;2023-05-07T07:16:56;4.93;;;3.08;;
58017;SDS011;43810;50.860;19.226;2023-05-07T07:19:22;14.77;;;2.65;;
58017;SDS011;43810;50.860;19.226;2023-05-07T07:21:48;2.67;;;1.65;;
58017;SDS011;43810;50.860;19.226;2023-05-07T07:24:14;1.45;;;1.27;;
58017;SDS011;43810;50.860;19.226;2023-05-07T07:26:46;1.63;;;1.27;;
58017;SDS011;43810;50.860;19.226;2023-05-07T07:29:12;2.33;;;1.50;;
58017;SDS011;43810;50.860;19.226;2023-05-07T07:31:38;3.55;;;1.20;;
58017;SDS011;43810;50.860;19.226;2023-05-07T07:34:04;1.88;;;1.40;;
58017;SDS011;43810;50.860;19.226;2023-05-07T07:36:30;1.67;;;1.50;;
58017;SDS011;43810;50.860;19.226;2023-05-07T07:38:55;5.57;;;1.30;;
58017;SDS011;43810;50.860;19.226;2023-05-07T07:41:21;2.63;;;1.60;;
58017;SDS011;43810;50.860;19.226;2023-05-07T07:43:47;5.97;;;2.00;;
58017;SDS011;43810;50.860;19.226;2023-05-07T07:46:13;2.58;;;1.75;;
58017;SDS011;43810;50.860;19.226;2023-05-07T07:48:38;2.42;;;1.77;;
58017;SDS011;43810;50.860;19.226;2023-05-07T07:51:04;3.72;;;2.03;;
58017;SDS011;43810;50.860;19.226;2023-05-07T07:53:30;3.30;;;1.58;;
58017;SDS011;43810;50.860;19.226;2023-05-07T07:55:56;1.60;;;1.35;;
58017;SDS011;43810;50.860;19.226;2023-05-07T07:58:22;2.97;;;1.20;;
58017;SDS011;43810;50.860;19.226;2023-05-07T08:00:50;1.55;;;1.38;;
58017;SDS011;43810;50.860;19.226;2023-05-07T08:03:16;2.90;;;2.50;;
58017;SDS011;43810;50.860;19.226;2023-05-07T08:05:42;3.35;;;2.70;;
58017;SDS011;43810;50.860;19.226;2023-05-07T08:08:08;1.70;;;1.40;;
58017;SDS011;43810;50.860;19.226;2023-05-07T08:10:34;3.28;;;1.90;;
58017;SDS011;43810;50.860;19.226;2023-05-07T08:13:03;2.35;;;1.58;;
58017;SDS011;43810;50.860;19.226;2023-05-07T08:15:29;3.55;;;1.98;;
58017;SDS011;43810;50.860;19.226;2023-05-07T08:17:55;1.98;;;1.40;;
58017;SDS011;43810;50.860;19.226;2023-05-07T08:20:23;2.53;;;1.50;;
58017;SDS011;43810;50.860;19.226;2023-05-07T08:22:49;3.22;;;2.10;;
58017;SDS011;43810;50.860;19.226;2023-05-07T08:25:15;3.22;;;2.15;;
58017;SDS011;43810;50.860;19.226;2023-05-07T08:27:40;2.88;;;1.70;;
58017;SDS011;43810;50.860;19.226;2023-05-07T08:30:06;2.85;;;1.70;;
58017;SDS011;43810;50.860;19.226;2023-05-07T08:32:33;3.33;;;2.17;;
58017;SDS011;43810;50.860;19.226;2023-05-07T08:34:59;2.63;;;1.95;;
58017;SDS011;43810;50.860;19.226;2023-05-07T08:37:25;2.70;;;2.30;;
58017;SDS011;43810;50.860;19.226;2023-05-07T08:39:51;2.10;;;1.67;;
58017;SDS011;43810;50.860;19.226;2023-05-07T08:42:17;3.55;;;2.15;;
58017;SDS011;43810;50.860;19.226;2023-05-07T08:44:44;5.70;;;2.83;;
58017;SDS011;43810;50.860;19.226;2023-05-07T08:47:12;3.88;;;2.13;;
58017;SDS011;43810;50.860;19.226;2023-05-07T08:49:38;2.15;;;1.90;;
58017;SDS011;43810;50.860;19.226;2023-05-07T08:52:05;3.63;;;2.08;;
58017;SDS011;43810;50.860;19.226;2023-05-07T08:54:31;2.70;;;1.80;;
58017;SDS011;43810;50.860;19.226;2023-05-07T08:56:57;2.58;;;1.70;;
58017;SDS011;43810;50.860;19.226;2023-05-07T08:59:23;7.78;;;3.45;;
58017;SDS011;43810;50.860;19.226;2023-05-07T09:01:49;5.95;;;3.30;;
58017;SDS011;43810;50.860;19.226;2023-05-07T09:04:15;4.55;;;2.20;;
58017;SDS011;43810;50.860;19.226;2023-05-07T09:06:41;2.47;;;1.50;;
58017;SDS011;43810;50.860;19.226;2023-05-07T09:09:07;2.65;;;1.80;;
58017;SDS011;43810;50.860;19.226;2023-05-07T09:11:33;3.67;;;1.90;;
58017;SDS011;43810;50.860;19.226;2023-05-07T09:13:59;5.05;;;2.95;;
58017;SDS011;43810;50.860;19.226;2023-05-07T09:16:28;4.40;;;2.15;;
58017;SDS011;43810;50.860;19.226;2023-05-07T09:18:56;3.53;;;2.80;;
58017;SDS011;43810;50.860;19.226;2023-05-07T09:21:23;6.03;;;4.25;;
58017;SDS011;43810;50.860;19.226;2023-05-07T09:23:50;6.60;;;4.03;;
58017;SDS011;43810;50.860;19.226;2023-05-07T09:26:17;6.43;;;3.70;;
58017;SDS011;43810;50.860;19.226;2023-05-07T09:28:43;3.85;;;2.78;;
58017;SDS011;43810;50.860;19.226;2023-05-07T09:31:10;7.05;;;3.72;;
58017;SDS011;43810;50.860;19.226;2023-05-07T09:33:37;5.85;;;2.95;;
58017;SDS011;43810;50.860;19.226;2023-05-07T09:36:05;4.90;;;3.38;;
58017;SDS011;43810;50.860;19.226;2023-05-07T09:38:32;4.13;;;3.10;;
58017;SDS011;43810;50.860;19.226;2023-05-07T09:41:05;3.40;;;3.10;;
58017;SDS011;43810;50.860;19.226;2023-05-07T09:43:32;4.65;;;2.80;;
58017;SDS011;43810;50.860;19.226;2023-05-07T09:46:07;3.33;;;2.90;;
58017;SDS011;43810;50.860;19.226;2023-05-07T09:48:37;4.30;;;3.15;;
58017;SDS011;43810;50.860;19.226;2023-05-07T09:51:06;4.38;;;2.75;;
58017;SDS011;43810;50.860;19.226;2023-05-07T09:53:39;5.28;;;2.50;;
58017;SDS011;43810;50.860;19.226;2023-05-07T09:56:06;2.80;;;2.42;;
58017;SDS011;43810;50.860;19.226;2023-05-07T09:58:33;2.88;;;2.28;;
58017;SDS011;43810;50.860;19.226;2023-05-07T10:01:02;3.33;;;2.30;;
58017;SDS011;43810;50.860;19.226;2023-05-07T10:03:28;4.13;;;2.20;;
58017;SDS011;43810;50.860;19.226;2023-05-07T10:05:58;2.90;;;1.98;;
58017;SDS011;43810;50.860;19.226;2023-05-07T10:08:23;2.40;;;1.90;;
58017;SDS011;43810;50.860;19.226;2023-05-07T10:10:50;2.67;;;1.95;;
58017;SDS011;43810;50.860;19.226;2023-05-07T10:13:16;2.40;;;2.20;;
58017;SDS011;43810;50.860;19.226;2023-05-07T10:15:44;2.15;;;1.95;;
58017;SDS011;43810;50.860;19.226;2023-05-07T10:18:10;2.17;;;1.75;;
58017;SDS011;43810;50.860;19.226;2023-05-07T10:20:38;4.82;;;2.28;;
58017;SDS011;43810;50.860;19.226;2023-05-07T10:23:04;6.28;;;3.03;;
58017;SDS011;43810;50.860;19.226;2023-05-07T10:25:31;6.07;;;2.53;;
58017;SDS011;43810;50.860;19.226;2023-05-07T10:28:02;6.15;;;3.05;;
58017;SDS011;43810;50.860;19.226;2023-05-07T10:33:34;2.15;;;1.95;;
58017;SDS011;43810;50.860;19.226;2023-05-07T10:36:03;3.92;;;2.25;;
58017;SDS011;43810;50.860;19.226;2023-05-07T10:38:30;5.00;;;2.47;;
58017;SDS011;43810;50.860;19.226;2023-05-07T10:40:57;4.63;;;2.25;;
58017;SDS011;43810;50.860;19.226;2023-05-07T10:43:22;3.33;;;2.28;;
58017;SDS011;43810;50.860;19.226;2023-05-07T10:51:29;3.17;;;2.28;;
58017;SDS011;43810;50.860;19.226;2023-05-07T10:56:35;3.00;;;2.60;;
58017;SDS011;43810;50.860;19.226;2023-05-07T10:59:38;6.40;;;2.92;;
58017;SDS011;43810;50.860;19.226;2023-05-07T11:04:29;4.68;;;3.05;;
58017;SDS011;43810;50.860;19.226;2023-05-07T11:15:05;5.32;;;3.47;;
58017;SDS011;43810;50.860;19.226;2023-05-07T11:20:19;5.20;;;3.95;;
58017;SDS011;43810;50.860;19.226;2023-05-07T11:22:47;5.38;;;3.88;;
58017;SDS011;43810;50.860;19.226;2023-05-07T11:25:19;5.47;;;3.92;;
58017;SDS011;43810;50.860;19.226;2023-05-07T11:27:46;5.88;;;4.28;;
58017;SDS011;43810;50.860;19.226;2023-05-07T11:30:19;6.45;;;4.28;;
58017;SDS011;43810;50.860;19.226;2023-05-07T11:32:47;7.28;;;4.82;;
58017;SDS011;43810;50.860;19.226;2023-05-07T11:35:13;7.35;;;4.05;;
58017;SDS011;43810;50.860;19.226;2023-05-07T11:37:40;5.15;;;3.90;;
58017;SDS011;43810;50.860;19.226;2023-05-07T11:40:07;5.07;;;3.70;;
58017;SDS011;43810;50.860;19.226;2023-05-07T11:42:37;4.78;;;3.40;;
58017;SDS011;43810;50.860;19.226;2023-05-07T11:45:04;4.32;;;3.42;;
58017;SDS011;43810;50.860;19.226;2023-05-07T11:47:32;4.03;;;3.47;;
58017;SDS011;43810;50.860;19.226;2023-05-07T11:50:01;5.00;;;3.78;;
58017;SDS011;43810;50.860;19.226;2023-05-07T11:52:30;6.03;;;4.03;;
58017;SDS011;43810;50.860;19.226;2023-05-07T11:54:56;5.10;;;3.70;;
58017;SDS011;43810;50.860;19.226;2023-05-07T11:57:24;4.90;;;4.10;;
58017;SDS011;43810;50.860;19.226;2023-05-07T11:59:57;4.70;;;4.03;;
58017;SDS011;43810;50.860;19.226;2023-05-07T12:04:53;4.07;;;3.50;;
58017;SDS011;43810;50.860;19.226;2023-05-07T12:07:20;5.35;;;3.60;;
58017;SDS011;43810;50.860;19.226;2023-05-07T12:09:46;6.80;;;3.85;;
58017;SDS011;43810;50.860;19.226;2023-05-07T12:12:14;5.18;;;3.40;;
58017;SDS011;43810;50.860;19.226;2023-05-07T12:14:44;5.45;;;3.70;;
58017;SDS011;43810;50.860;19.226;2023-05-07T12:17:12;4.28;;;3.25;;
58017;SDS011;43810;50.860;19.226;2023-05-07T12:19:40;8.07;;;3.38;;
58017;SDS011;43810;50.860;19.226;2023-05-07T12:22:09;3.58;;;3.08;;
58017;SDS011;43810;50.860;19.226;2023-05-07T12:24:46;5.15;;;3.47;;
58017;SDS011;43810;50.860;19.226;2023-05-07T12:27:16;5.72;;;3.92;;
58017;SDS011;43810;50.860;19.226;2023-05-07T12:29:49;5.22;;;3.35;;
58017;SDS011;43810;50.860;19.226;2023-05-07T12:34:44;3.47;;;2.90;;
58017;SDS011;43810;50.860;19.226;2023-05-07T12:37:11;4.05;;;2.85;;
58017;SDS011;43810;50.860;19.226;2023-05-07T12:39:44;4.30;;;2.95;;
58017;SDS011;43810;50.860;19.226;2023-05-07T12:42:14;3.88;;;2.97;;
58017;SDS011;43810;50.860;19.226;2023-05-07T12:44:45;3.47;;;2.58;;
58017;SDS011;43810;50.860;19.226;2023-05-07T12:47:12;4.35;;;3.10;;
58017;SDS011;43810;50.860;19.226;2023-05-07T12:49:38;5.50;;;2.83;;
58017;SDS011;43810;50.860;19.226;2023-05-07T12:52:05;5.82;;;2.80;;
58017;SDS011;43810;50.860;19.226;2023-05-07T12:54:32;3.50;;;2.65;;
58017;SDS011;43810;50.860;19.226;2023-05-07T12:57:01;2.78;;;2.20;;
58017;SDS011;43810;50.860;19.226;2023-05-07T12:59:33;3.47;;;2.70;;
58017;SDS011;43810;50.860;19.226;2023-05-07T13:02:02;3.28;;;2.60;;
58017;SDS011;43810;50.860;19.226;2023-05-07T13:04:28;3.50;;;2.70;;
58017;SDS011;43810;50.860;19.226;2023-05-07T13:06:56;5.95;;;3.05;;
58017;SDS011;43810;50.860;19.226;2023-05-07T13:09:22;6.03;;;3.22;;
58017;SDS011;43810;50.860;19.226;2023-05-07T13:11:48;5.65;;;3.58;;
58017;SDS011;43810;50.860;19.226;2023-05-07T13:14:14;6.95;;;3.70;;
58017;SDS011;43810;50.860;19.226;2023-05-07T13:16:40;5.50;;;4.18;;
58017;SDS011;43810;50.860;19.226;2023-05-07T13:19:07;5.15;;;3.63;;
58017;SDS011;43810;50.860;19.226;2023-05-07T13:21:33;6.63;;;4.22;;
58017;SDS011;43810;50.860;19.226;2023-05-07T13:23:59;5.50;;;4.15;;
58017;SDS011;43810;50.860;19.226;2023-05-07T13:26:25;5.55;;;3.88;;
58017;SDS011;43810;50.860;19.226;2023-05-07T13:28:54;6.78;;;4.70;;
58017;SDS011;43810;50.860;19.226;2023-05-07T13:31:20;6.78;;;5.00;;
58017;SDS011;43810;50.860;19.226;2023-05-07T13:33:47;9.30;;;4.60;;
58017;SDS011;43810;50.860;19.226;2023-05-07T13:36:13;8.35;;;3.83;;
58017;SDS011;43810;50.860;19.226;2023-05-07T13:38:39;5.90;;;3.88;;
58017;SDS011;43810;50.860;19.226;2023-05-07T13:41:05;8.52;;;3.42;;
58017;SDS011;43810;50.860;19.226;2023-05-07T13:43:31;4.25;;;3.33;;
58017;SDS011;43810;50.860;19.226;2023-05-07T13:45:59;5.35;;;3.65;;
58017;SDS011;43810;50.860;19.226;2023-05-07T13:48:25;6.28;;;4.18;;
58017;SDS011;43810;50.860;19.226;2023-05-07T13:50:51;8.10;;;4.22;;
58017;SDS011;43810;50.860;19.226;2023-05-07T13:53:17;7.75;;;4.50;;
58017;SDS011;43810;50.860;19.226;2023-05-07T13:55:44;5.95;;;4.25;;
58017;SDS011;43810;50.860;19.226;2023-05-07T13:58:10;6.65;;;4.45;;
58017;SDS011;43810;50.860;19.226;2023-05-07T14:00:36;6.32;;;4.13;;
58017;SDS011;43810;50.860;19.226;2023-05-07T14:03:02;5.55;;;4.28;;
58017;SDS011;43810;50.860;19.226;2023-05-07T14:05:30;6.70;;;4.00;;
58017;SDS011;43810;50.860;19.226;2023-05-07T14:07:59;4.85;;;3.85;;
58017;SDS011;43810;50.860;19.226;2023-05-07T14:10:25;4.20;;;3.72;;
58017;SDS011;43810;50.860;19.226;2023-05-07T14:12:51;5.22;;;3.55;;
58017;SDS011;43810;50.860;19.226;2023-05-07T14:15:18;5.50;;;3.85;;
58017;SDS011;43810;50.860;19.226;2023-05-07T14:17:43;7.78;;;4.53;;
58017;SDS011;43810;50.860;19.226;2023-05-07T14:20:10;6.38;;;4.40;;
58017;SDS011;43810;50.860;19.226;2023-05-07T14:22:37;11.55;;;5.32;;
58017;SDS011;43810;50.860;19.226;2023-05-07T14:25:04;10.20;;;5.47;;
58017;SDS011;43810;50.860;19.226;2023-05-07T14:27:30;7.75;;;4.45;;
58017;SDS011;43810;50.860;19.226;2023-05-07T14:29:56;9.68;;;4.85;;
58017;SDS011;43810;50.860;19.226;2023-05-07T14:32:22;6.68;;;3.90;;
58017;SDS011;43810;50.860;19.226;2023-05-07T14:34:48;5.43;;;3.78;;
58017;SDS011;43810;50.860;19.226;2023-05-07T14:37:14;5.35;;;3.72;;
58017;SDS011;43810;50.860;19.226;2023-05-07T14:39:40;7.25;;;3.92;;
58017;SDS011;43810;50.860;19.226;2023-05-07T14:42:05;5.05;;;3.28;;
58017;SDS011;43810;50.860;19.226;2023-05-07T14:44:34;5.72;;;3.65;;
58017;SDS011;43810;50.860;19.226;2023-05-07T14:47:00;6.05;;;3.80;;
58017;SDS011;43810;50.860;19.226;2023-05-07T14:49:26;7.75;;;4.40;;
58017;SDS011;43810;50.860;19.226;2023-05-07T14:51:52;7.65;;;4.13;;
58017;SDS011;43810;50.860;19.226;2023-05-07T14:54:18;6.70;;;4.20;;
58017;SDS011;43810;50.860;19.226;2023-05-07T14:56:44;11.27;;;5.10;;
58017;SDS011;43810;50.860;19.226;2023-05-07T14:59:10;8.30;;;5.30;;